Time;durP1;ratioP1;P1;durP2;ratioP2;P2;SDS_P1;SDS_P2;PMS_P1;PMS_P2;Temp;Humidity;BMP_temperature;BMP_pressure;BME280_temperature;BME280_humidity;BME280_pressure;Samples;Min_cycle;Max_cycle;Signal;HPM_P1;HPM_P2
2022/09/03 00:01:13;;;;;;;2.20;2.10;;;;;;;;;;5077983;28;20208;-82
2022/09/03 00:03:44;;;;;;;2.77;2.57;;;;;;;;;;5073276;28;20209;-82
2022/09/03 00:06:16;;;;;;;2.53;2.33;;;;;;;;;;5077282;28;20204;-82
2022/09/03 00:08:47;;;;;;;2.73;2.53;;;;;;;;;;5091568;28;20204;-82
2022/09/03 00:11:18;;;;;;;2.83;2.63;;;;;;;;;;5076858;28;20215;-82
2022/09/03 00:13:53;;;;;;;3.10;2.40;;;;;;;;;;5090716;28;20200;-83
2022/09/03 00:16:21;;;;;;;3.43;3.20;;;;;;;;;;5090755;28;20203;-82
2022/09/03 00:18:53;;;;;;;3.57;3.30;;;;;;;;;;5090847;28;20292;-84
2022/09/03 00:21:26;;;;;;;2.30;2.20;;;;;;;;;;5090703;28;20231;-82
2022/09/03 00:23:53;;;;;;;2.90;2.70;;;;;;;;;;5090764;28;20200;-82
2022/09/03 00:26:26;;;;;;;2.93;2.67;;;;;;;;;;5090312;28;20284;-82
2022/09/03 00:28:58;;;;;;;3.63;2.87;;;;;;;;;;5091160;28;20212;-82
2022/09/03 00:31:27;;;;;;;2.97;2.77;;;;;;;;;;5050460;28;20201;-82
2022/09/03 00:33:58;;;;;;;2.70;2.50;;;;;;;;;;5050726;28;20206;-82
2022/09/03 00:36:29;;;;;;;3.10;2.83;;;;;;;;;;5050302;28;20666;-82
2022/09/03 00:38:57;;;;;;;2.83;2.63;;;;;;;;;;5050362;28;20586;-83
2022/09/03 00:41:32;;;;;;;2.83;2.63;;;;;;;;;;5049219;28;20208;-82
2022/09/03 00:44:15;;;;;;;2.90;2.70;;;;;;;;;;5050334;28;20587;-82
2022/09/03 00:46:47;;;;;;;2.80;2.60;;;;;;;;;;5050313;28;20643;-82
2022/09/03 00:49:27;;;;;;;3.07;2.87;;;;;;;;;;5050290;28;20198;-83
2022/09/03 00:51:58;;;;;;;3.27;3.07;;;;;;;;;;5050315;28;20194;-82
2022/09/03 00:54:33;;;;;;;2.60;2.40;;;;;;;;;;5050429;28;20206;-82
2022/09/03 00:57:12;;;;;;;2.90;2.70;;;;;;;;;;5052034;28;20207;-82
2022/09/03 00:59:44;;;;;;;2.50;2.33;;;;;;;;;;5053989;28;20318;-82
2022/09/03 01:02:17;;;;;;;2.90;2.70;;;;;;;;;;5054049;28;20206;-82
2022/09/03 01:04:52;;;;;;;2.60;2.40;;;;;;;;;;5054300;28;20209;-82
2022/09/03 01:07:25;;;;;;;3.17;2.93;;;;;;;;;;5054033;28;20212;-82
2022/09/03 01:09:56;;;;;;;3.23;3.03;;;;;;;;;;5054427;28;20214;-83
2022/09/03 01:12:34;;;;;;;2.63;2.43;;;;;;;;;;5053782;28;20235;-83
2022/09/03 01:15:09;;;;;;;3.07;2.77;;;;;;;;;;5053829;28;20225;-82
2022/09/03 01:17:46;;;;;;;3.43;3.13;;;;;;;;;;5053506;28;20628;-82
2022/09/03 01:20:37;;;;;;;3.40;3.10;;;;;;;;;;5053764;28;20676;-82
2022/09/03 01:23:47;;;;;;;2.90;2.70;;;;;;;;;;5053873;28;20194;-82
2022/09/03 01:26:29;;;;;;;2.63;2.43;;;;;;;;;;5053629;28;20198;-82
2022/09/03 01:29:06;;;;;;;2.77;2.57;;;;;;;;;;5054238;28;20229;-82
2022/09/03 01:31:37;;;;;;;2.70;2.50;;;;;;;;;;5108153;28;20287;-81
2022/09/03 01:34:13;;;;;;;3.00;2.80;;;;;;;;;;5094146;28;20208;-82
2022/09/03 01:36:47;;;;;;;2.43;2.23;;;;;;;;;;5093482;28;20203;-82
2022/09/03 01:39:17;;;;;;;2.73;2.53;;;;;;;;;;5093252;28;20224;-84
2022/09/03 01:44:43;;;;;;;3.80;2.77;;;;;;;;;;5093463;28;20702;-83
2022/09/03 01:47:15;;;;;;;2.93;2.73;;;;;;;;;;5093626;28;20296;-82
2022/09/03 01:49:50;;;;;;;2.10;2.00;;;;;;;;;;5092859;28;20207;-83
2022/09/03 01:52:25;;;;;;;2.90;2.67;;;;;;;;;;5093490;28;20704;-82
2022/09/03 01:55:01;;;;;;;2.53;2.33;;;;;;;;;;5093326;28;20296;-82
2022/09/03 01:57:46;;;;;;;2.50;2.30;;;;;;;;;;5093255;28;20196;-82
2022/09/03 02:00:19;;;;;;;2.50;2.30;;;;;;;;;;5093319;28;20243;-82
2022/09/03 02:02:47;;;;;;;2.50;2.30;;;;;;;;;;5079561;28;20700;-82
2022/09/03 02:05:17;;;;;;;2.40;2.30;;;;;;;;;;5075092;28;20610;-82
2022/09/03 02:07:45;;;;;;;2.30;2.10;;;;;;;;;;5092971;28;20667;-82
2022/09/03 02:10:15;;;;;;;2.23;2.10;;;;;;;;;;5093088;28;20287;-83
2022/09/03 02:12:44;;;;;;;2.70;2.50;;;;;;;;;;5092677;28;20254;-82
2022/09/03 02:15:15;;;;;;;2.67;2.47;;;;;;;;;;5092876;28;20213;-82
2022/09/03 02:17:43;;;;;;;2.60;2.40;;;;;;;;;;5092694;28;20291;-82
2022/09/03 02:20:12;;;;;;;2.80;2.60;;;;;;;;;;5092676;28;20215;-82
2022/09/03 02:22:40;;;;;;;2.87;2.60;;;;;;;;;;5092620;28;20204;-83
2022/09/03 02:25:09;;;;;;;3.83;2.50;;;;;;;;;;5101071;28;20200;-81
2022/09/03 02:27:37;;;;;;;3.93;2.90;;;;;;;;;;5098012;28;20238;-82
2022/09/03 02:30:04;;;;;;;2.47;2.27;;;;;;;;;;5100003;28;20227;-82
2022/09/03 02:32:33;;;;;;;3.00;2.80;;;;;;;;;;5099355;28;20223;-82
2022/09/03 02:35:00;;;;;;;5.40;3.10;;;;;;;;;;5092793;28;20200;-82
2022/09/03 02:37:27;;;;;;;3.20;2.90;;;;;;;;;;5074430;28;20204;-82
2022/09/03 02:39:54;;;;;;;2.53;2.33;;;;;;;;;;5074465;28;20282;-83
2022/09/03 02:42:21;;;;;;;2.97;2.77;;;;;;;;;;5057804;28;20230;-82
2022/09/03 02:44:50;;;;;;;2.70;2.50;;;;;;;;;;5092300;28;20207;-82
2022/09/03 02:47:19;;;;;;;2.57;2.37;;;;;;;;;;5092691;28;20197;-82
2022/09/03 02:49:47;;;;;;;2.57;2.37;;;;;;;;;;5092053;28;20212;-83
2022/09/03 02:52:15;;;;;;;2.43;2.23;;;;;;;;;;5091986;28;20569;-83
2022/09/03 02:54:44;;;;;;;2.60;1.80;;;;;;;;;;5092559;28;20273;-83
2022/09/03 02:57:13;;;;;;;2.37;2.17;;;;;;;;;;5076611;28;20211;-83
2022/09/03 02:59:42;;;;;;;2.13;2.00;;;;;;;;;;5103417;28;20782;-83
2022/09/03 03:02:09;;;;;;;1.80;1.70;;;;;;;;;;5091971;28;20212;-82
2022/09/03 03:04:37;;;;;;;1.80;1.70;;;;;;;;;;5091745;28;20216;-82
2022/09/03 03:07:05;;;;;;;2.83;2.37;;;;;;;;;;5091689;28;20200;-82
2022/09/03 03:09:32;;;;;;;2.50;2.30;;;;;;;;;;5092200;28;20227;-83
2022/09/03 03:11:59;;;;;;;1.90;1.80;;;;;;;;;;5091964;28;20207;-83
2022/09/03 03:14:26;;;;;;;2.07;1.90;;;;;;;;;;5073749;28;20208;-82
2022/09/03 03:16:54;;;;;;;1.80;1.70;;;;;;;;;;5091800;28;20211;-82
2022/09/03 03:19:21;;;;;;;1.43;1.33;;;;;;;;;;5090997;28;20714;-82
2022/09/03 03:21:47;;;;;;;2.10;2.00;;;;;;;;;;5073275;28;20651;-82
2022/09/03 03:24:16;;;;;;;1.63;1.53;;;;;;;;;;5091548;28;20582;-83
2022/09/03 03:26:43;;;;;;;1.70;1.60;;;;;;;;;;5091876;28;20204;-82
2022/09/03 03:29:14;;;;;;;1.33;1.27;;;;;;;;;;5091369;28;20235;-82
2022/09/03 03:31:42;;;;;;;1.93;1.80;;;;;;;;;;5077949;28;20261;-83
2022/09/03 03:34:09;;;;;;;1.70;1.60;;;;;;;;;;5073180;28;20223;-83
2022/09/03 03:36:36;;;;;;;1.77;1.67;;;;;;;;;;5091352;28;20192;-82
2022/09/03 03:39:03;;;;;;;1.67;1.57;;;;;;;;;;5056599;28;20256;-83
2022/09/03 03:41:33;;;;;;;2.90;2.70;;;;;;;;;;5090839;28;20204;-83
2022/09/03 03:44:01;;;;;;;2.93;2.73;;;;;;;;;;5091603;28;20628;-83
2022/09/03 03:46:30;;;;;;;3.23;2.97;;;;;;;;;;5091157;28;20196;-84
2022/09/03 03:48:58;;;;;;;4.17;3.77;;;;;;;;;;5091703;28;20200;-82
2022/09/03 03:51:25;;;;;;;3.50;3.20;;;;;;;;;;5090846;28;20208;-82
2022/09/03 03:53:55;;;;;;;3.40;3.03;;;;;;;;;;5090886;28;20212;-82
2022/09/03 03:56:23;;;;;;;2.20;2.00;;;;;;;;;;5091105;28;20300;-82
2022/09/03 03:58:51;;;;;;;1.80;1.70;;;;;;;;;;5090968;28;20220;-82
2022/09/03 04:01:19;;;;;;;1.80;1.70;;;;;;;;;;5090487;28;20204;-82
2022/09/03 04:03:46;;;;;;;2.07;1.87;;;;;;;;;;5091136;28;20583;-82
2022/09/03 04:06:14;;;;;;;2.47;1.80;;;;;;;;;;5072730;28;20259;-83
2022/09/03 04:08:42;;;;;;;2.30;2.10;;;;;;;;;;5090942;28;20876;-82
2022/09/03 04:11:13;;;;;;;1.60;1.50;;;;;;;;;;5090624;28;20208;-82
2022/09/03 04:13:41;;;;;;;2.10;1.77;;;;;;;;;;5090637;28;20210;-83
2022/09/03 04:16:11;;;;;;;1.50;1.40;;;;;;;;;;5090732;28;20667;-82
2022/09/03 04:18:38;;;;;;;1.80;1.50;;;;;;;;;;5090906;28;20231;-82
2022/09/03 04:21:07;;;;;;;1.97;1.80;;;;;;;;;;5090777;28;20555;-82
2022/09/03 04:23:36;;;;;;;2.10;1.73;;;;;;;;;;5100690;28;20196;-82
2022/09/03 04:26:03;;;;;;;1.80;1.70;;;;;;;;;;5094021;28;20201;-83
2022/09/03 04:28:30;;;;;;;1.67;1.57;;;;;;;;;;5091354;28;20231;-82
2022/09/03 04:31:01;;;;;;;1.33;1.23;;;;;;;;;;5090056;28;20235;-83
2022/09/03 04:33:30;;;;;;;1.53;1.43;;;;;;;;;;5090823;28;20238;-82
2022/09/03 04:36:04;;;;;;;1.23;1.10;;;;;;;;;;5090622;28;20204;-83
2022/09/03 04:38:31;;;;;;;1.13;1.13;;;;;;;;;;5077034;28;20200;-82
2022/09/03 04:40:59;;;;;;;1.60;1.50;;;;;;;;;;5090595;28;20282;-82
2022/09/03 04:43:27;;;;;;;1.10;1.00;;;;;;;;;;5090342;28;20748;-83
2022/09/03 04:45:57;;;;;;;1.73;1.63;;;;;;;;;;5090690;28;20212;-82
2022/09/03 04:48:24;;;;;;;1.17;1.17;;;;;;;;;;5090513;28;20224;-82
2022/09/03 04:50:56;;;;;;;1.37;1.27;;;;;;;;;;5072279;28;20699;-83
2022/09/03 04:53:23;;;;;;;1.00;1.00;;;;;;;;;;5104579;28;20248;-82
2022/09/03 04:55:50;;;;;;;1.10;1.10;;;;;;;;;;5056207;28;20204;-82
2022/09/03 04:58:17;;;;;;;1.03;1.03;;;;;;;;;;5090268;28;20258;-82
2022/09/03 05:00:44;;;;;;;0.87;0.87;;;;;;;;;;5090199;28;20256;-82
2022/09/03 05:03:11;;;;;;;1.67;1.13;;;;;;;;;;5071931;28;20246;-82
2022/09/03 05:05:38;;;;;;;1.40;1.30;;;;;;;;;;5071713;28;20208;-82
2022/09/03 05:08:07;;;;;;;0.93;0.93;;;;;;;;;;5055902;28;20216;-82
2022/09/03 05:10:34;;;;;;;0.67;0.67;;;;;;;;;;5090099;28;20283;-83
2022/09/03 05:13:01;;;;;;;1.27;1.20;;;;;;;;;;5072629;28;20196;-83
2022/09/03 05:15:29;;;;;;;0.97;0.97;;;;;;;;;;5090368;28;20208;-82
2022/09/03 05:17:57;;;;;;;1.37;1.27;;;;;;;;;;5072178;28;20208;-82
2022/09/03 05:20:24;;;;;;;0.70;0.70;;;;;;;;;;5090118;28;20652;-82
2022/09/03 05:22:51;;;;;;;2.07;1.27;;;;;;;;;;5071934;28;20228;-83
2022/09/03 05:25:21;;;;;;;1.60;1.50;;;;;;;;;;5090160;28;20283;-82
2022/09/03 05:27:48;;;;;;;2.00;1.80;;;;;;;;;;5090132;28;20215;-82
2022/09/03 05:30:15;;;;;;;2.20;2.00;;;;;;;;;;5037598;28;20676;-80
2022/09/03 05:32:42;;;;;;;1.30;1.27;;;;;;;;;;5049298;28;20209;-81
2022/09/03 05:35:13;;;;;;;1.03;1.03;;;;;;;;;;5049186;28;20221;-80
2022/09/03 05:37:40;;;;;;;1.20;1.17;;;;;;;;;;5050011;28;20209;-79
2022/09/03 05:40:09;;;;;;;1.20;1.10;;;;;;;;;;5049162;28;20225;-80
2022/09/03 05:42:37;;;;;;;1.10;1.10;;;;;;;;;;5050182;28;20251;-80
2022/09/03 05:45:09;;;;;;;1.20;1.20;;;;;;;;;;5053643;28;20201;-87
2022/09/03 05:47:38;;;;;;;0.70;0.70;;;;;;;;;;5045345;28;20960;-87
2022/09/03 05:50:07;;;;;;;0.80;0.80;;;;;;;;;;5053040;28;20654;-87
2022/09/03 05:52:35;;;;;;;1.17;1.10;;;;;;;;;;5051111;28;20692;-87
2022/09/03 05:55:02;;;;;;;1.13;1.03;;;;;;;;;;5050933;28;20232;-89
2022/09/03 05:57:29;;;;;;;0.80;0.80;;;;;;;;;;5046457;28;20229;-88
2022/09/03 05:59:59;;;;;;;1.13;1.03;;;;;;;;;;5052149;28;20829;-88
2022/09/03 06:02:26;;;;;;;0.90;0.90;;;;;;;;;;5052153;28;20271;-89
2022/09/03 06:04:55;;;;;;;1.17;1.07;;;;;;;;;;5053627;28;20214;-88
2022/09/03 06:07:22;;;;;;;1.53;1.43;;;;;;;;;;5052862;28;20209;-87
2022/09/03 06:09:49;;;;;;;1.30;1.20;;;;;;;;;;5052801;28;20206;-88
2022/09/03 06:12:17;;;;;;;0.87;0.80;;;;;;;;;;5048720;28;20205;-89
2022/09/03 06:14:44;;;;;;;0.70;0.70;;;;;;;;;;5047241;28;20217;-87
2022/09/03 06:17:13;;;;;;;0.73;0.73;;;;;;;;;;5045680;28;20584;-87
2022/09/03 06:19:41;;;;;;;0.70;0.70;;;;;;;;;;5053320;28;20312;-89
2022/09/03 06:22:08;;;;;;;1.00;0.90;;;;;;;;;;5041306;28;20206;-88
2022/09/03 06:24:35;;;;;;;1.23;1.13;;;;;;;;;;5049365;28;20213;-91
2022/09/03 06:27:03;;;;;;;0.90;0.90;;;;;;;;;;5052380;28;20635;-88
2022/09/03 06:29:30;;;;;;;0.93;0.93;;;;;;;;;;5035445;28;20712;-89
2022/09/03 06:31:57;;;;;;;0.83;0.83;;;;;;;;;;5052648;28;20217;-88
2022/09/03 06:34:27;;;;;;;1.07;0.93;;;;;;;;;;5053144;28;20213;-88
2022/09/03 06:36:54;;;;;;;0.97;0.93;;;;;;;;;;5038220;28;20695;-87
2022/09/03 06:39:21;;;;;;;0.67;0.67;;;;;;;;;;5051267;28;20243;-89
2022/09/03 06:41:50;;;;;;;0.43;0.43;;;;;;;;;;5050627;28;20201;-87
2022/09/03 06:44:20;;;;;;;0.70;0.70;;;;;;;;;;5052357;28;20209;-89
2022/09/03 06:47:05;;;;;;;;;;;;;;;;;;;;;
2022/09/03 06:52:54;;;;;;;1.43;1.43;;;;;;;;;;5030050;28;20203;-89
2022/09/03 06:55:22;;;;;;;0.63;0.63;;;;;;;;;;5033923;28;20252;-89
2022/09/03 06:57:50;;;;;;;0.57;0.57;;;;;;;;;;5053095;28;20206;-88
2022/09/03 07:00:18;;;;;;;0.40;0.40;;;;;;;;;;5051984;28;20679;-87
2022/09/03 07:02:47;;;;;;;0.60;0.60;;;;;;;;;;5051838;28;20217;-87
2022/09/03 07:05:16;;;;;;;0.63;0.63;;;;;;;;;;5051844;28;20224;-88
2022/09/03 07:07:45;;;;;;;0.57;0.57;;;;;;;;;;5052643;28;20631;-88
2022/09/03 07:10:15;;;;;;;0.60;0.60;;;;;;;;;;5052674;28;20202;-88
2022/09/03 07:12:42;;;;;;;0.50;0.50;;;;;;;;;;5052274;28;20206;-88
2022/09/03 07:15:12;;;;;;;0.50;0.50;;;;;;;;;;5035249;28;20206;-88
2022/09/03 07:17:39;;;;;;;0.57;0.57;;;;;;;;;;5052257;28;20285;-88
2022/09/03 07:20:08;;;;;;;0.50;0.50;;;;;;;;;;5035240;28;20234;-87
2022/09/03 07:22:37;;;;;;;0.87;0.80;;;;;;;;;;5016899;28;20211;-88
2022/09/03 07:25:05;;;;;;;0.57;0.57;;;;;;;;;;5051565;28;20212;-88
2022/09/03 07:27:32;;;;;;;0.60;0.60;;;;;;;;;;5050792;28;20229;-91
2022/09/03 07:29:59;;;;;;;0.67;0.67;;;;;;;;;;5050895;28;20237;-88
2022/09/03 07:32:26;;;;;;;0.40;0.40;;;;;;;;;;5051331;28;20208;-88
2022/09/03 07:34:53;;;;;;;0.50;0.47;;;;;;;;;;5050963;28;20210;-87
2022/09/03 07:37:20;;;;;;;0.43;0.43;;;;;;;;;;5052066;28;20209;-88
2022/09/03 07:39:48;;;;;;;0.50;0.50;;;;;;;;;;5054906;28;20220;-89
2022/09/03 07:42:15;;;;;;;0.60;0.60;;;;;;;;;;5061605;28;20209;-89
2022/09/03 07:44:42;;;;;;;0.67;0.53;;;;;;;;;;5050751;28;20206;-88
2022/09/03 07:47:10;;;;;;;0.60;0.60;;;;;;;;;;5050831;28;20202;-88
2022/09/03 07:49:37;;;;;;;0.50;0.50;;;;;;;;;;5050191;28;20210;-87
2022/09/03 07:52:04;;;;;;;0.40;0.40;;;;;;;;;;5046267;28;20301;-87
2022/09/03 07:54:31;;;;;;;0.63;0.63;;;;;;;;;;5051612;28;20692;-91
2022/09/03 07:57:00;;;;;;;0.57;0.57;;;;;;;;;;5051235;28;20304;-93
2022/09/03 07:59:27;;;;;;;0.67;0.67;;;;;;;;;;5051969;28;20213;-92
2022/09/03 08:01:53;;;;;;;0.67;0.50;;;;;;;;;;5051673;28;20662;-91
2022/09/03 08:04:21;;;;;;;0.67;0.67;;;;;;;;;;5052029;28;20205;-93
2022/09/03 08:06:48;;;;;;;0.50;0.50;;;;;;;;;;5051436;28;20232;-91
2022/09/03 08:09:15;;;;;;;0.60;0.60;;;;;;;;;;5051393;28;20292;-89
2022/09/03 08:11:43;;;;;;;0.70;0.70;;;;;;;;;;5051430;28;20206;-91
2022/09/03 08:14:13;;;;;;;0.50;0.50;;;;;;;;;;5051771;28;20213;-89
2022/09/03 08:16:41;;;;;;;0.87;0.83;;;;;;;;;;5051331;28;20660;-90
2022/09/03 08:19:10;;;;;;;0.67;0.67;;;;;;;;;;5051149;28;20778;-90
2022/09/03 08:21:37;;;;;;;0.83;0.83;;;;;;;;;;5050794;28;20229;-87
2022/09/03 08:24:05;;;;;;;0.70;0.70;;;;;;;;;;5049014;28;20259;-87
2022/09/03 08:26:34;;;;;;;0.73;0.73;;;;;;;;;;5019784;28;20285;-87
2022/09/03 08:29:01;;;;;;;0.60;0.60;;;;;;;;;;5051352;28;20206;-88
2022/09/03 08:31:31;;;;;;;0.73;0.73;;;;;;;;;;5072072;28;20211;-84
2022/09/03 08:34:02;;;;;;;0.97;0.97;;;;;;;;;;5055693;28;20212;-88
2022/09/03 08:36:32;;;;;;;0.80;0.80;;;;;;;;;;5072747;28;20204;-87
2022/09/03 08:39:03;;;;;;;0.73;0.73;;;;;;;;;;5090498;28;20228;-90
2022/09/03 08:41:42;;;;;;;0.60;0.60;;;;;;;;;;5088935;28;20231;-87
2022/09/03 08:44:20;;;;;;;1.00;0.90;;;;;;;;;;5073590;28;20204;-86
2022/09/03 08:46:53;;;;;;;0.87;0.87;;;;;;;;;;5051107;28;20748;-87
2022/09/03 08:49:23;;;;;;;2.60;0.70;;;;;;;;;;5070391;28;20204;-88
2022/09/03 08:51:53;;;;;;;0.90;0.90;;;;;;;;;;5067419;28;20629;-87
2022/09/03 08:54:23;;;;;;;0.83;0.77;;;;;;;;;;5061009;28;20223;-86
2022/09/03 08:56:51;;;;;;;0.88;0.85;;;;;;;;;;5089014;28;20204;-84
2022/09/03 08:59:20;;;;;;;0.80;0.80;;;;;;;;;;5071844;28;20210;-86
2022/09/03 09:01:57;;;;;;;0.80;0.77;;;;;;;;;;5103604;28;20232;-85
2022/09/03 09:04:40;;;;;;;0.60;0.60;;;;;;;;;;5072826;28;20273;-86
2022/09/03 09:07:11;;;;;;;0.80;0.80;;;;;;;;;;5088028;28;20892;-86
2022/09/03 09:09:48;;;;;;;0.90;0.90;;;;;;;;;;5103309;28;20276;-86
2022/09/03 09:12:21;;;;;;;1.17;1.08;;;;;;;;;;5088012;28;20233;-87
2022/09/03 09:14:52;;;;;;;1.33;1.23;;;;;;;;;;5088034;28;20196;-85
2022/09/03 09:17:31;;;;;;;0.70;0.70;;;;;;;;;;5090646;28;20207;-85
2022/09/03 09:20:05;;;;;;;0.82;0.82;;;;;;;;;;5093326;28;20212;-84
2022/09/03 09:22:35;;;;;;;0.90;0.90;;;;;;;;;;5092659;28;20200;-86
2022/09/03 09:25:04;;;;;;;0.80;0.80;;;;;;;;;;5087932;28;20196;-85
2022/09/03 09:27:32;;;;;;;1.00;1.00;;;;;;;;;;5104514;28;20290;-85
2022/09/03 09:30:02;;;;;;;1.03;1.03;;;;;;;;;;5097432;28;20739;-85
2022/09/03 09:32:30;;;;;;;0.90;0.90;;;;;;;;;;5093991;28;20200;-84
2022/09/03 09:34:57;;;;;;;1.33;1.20;;;;;;;;;;5093401;28;20209;-84
2022/09/03 09:37:24;;;;;;;1.30;1.20;;;;;;;;;;5093735;28;20203;-84
2022/09/03 09:39:56;;;;;;;1.40;1.30;;;;;;;;;;5093481;28;20200;-84
2022/09/03 09:42:24;;;;;;;1.10;1.10;;;;;;;;;;5074989;28;20633;-85
2022/09/03 09:44:51;;;;;;;0.82;0.82;;;;;;;;;;5092712;28;20200;-85
2022/09/03 09:47:24;;;;;;;1.15;1.13;;;;;;;;;;5092662;28;20257;-84
2022/09/03 09:49:56;;;;;;;1.00;1.00;;;;;;;;;;5092945;28;20673;-84
2022/09/03 09:52:27;;;;;;;0.85;0.85;;;;;;;;;;5093271;28;20693;-84
2022/09/03 09:55:05;;;;;;;1.40;1.30;;;;;;;;;;5093457;28;20605;-84
2022/09/03 09:57:33;;;;;;;1.13;1.02;;;;;;;;;;5092656;28;20200;-84
2022/09/03 10:00:07;;;;;;;1.30;1.20;;;;;;;;;;5073564;28;20200;-84
2022/09/03 10:02:36;;;;;;;0.95;0.95;;;;;;;;;;5092596;28;20196;-83
2022/09/03 10:05:15;;;;;;;0.95;0.95;;;;;;;;;;5092024;28;20601;-83
2022/09/03 10:07:42;;;;;;;1.55;1.45;;;;;;;;;;5091994;28;20208;-84
2022/09/03 10:10:16;;;;;;;1.17;1.17;;;;;;;;;;5064428;28;20200;-84
2022/09/03 10:12:46;;;;;;;1.40;1.30;;;;;;;;;;5090930;28;20208;-84
2022/09/03 10:15:20;;;;;;;1.35;1.27;;;;;;;;;;5089009;28;20200;-84
2022/09/03 10:17:55;;;;;;;1.58;1.48;;;;;;;;;;5091578;28;20204;-85
2022/09/03 10:20:29;;;;;;;1.27;1.20;;;;;;;;;;5091736;28;20204;-82
2022/09/03 10:23:00;;;;;;;1.55;1.45;;;;;;;;;;5091906;28;20663;-84
2022/09/03 10:25:37;;;;;;;1.40;1.30;;;;;;;;;;5084542;28;20362;-84
2022/09/03 10:28:06;;;;;;;1.45;1.35;;;;;;;;;;5092133;28;20188;-83
2022/09/03 10:30:45;;;;;;;1.63;1.52;;;;;;;;;;5092327;28;20239;-84
2022/09/03 10:33:18;;;;;;;1.48;1.38;;;;;;;;;;5091941;28;20257;-84
2022/09/03 10:35:52;;;;;;;1.67;1.58;;;;;;;;;;5084417;28;20605;-83
2022/09/03 10:38:27;;;;;;;0.90;0.90;;;;;;;;;;5092078;28;20678;-84
2022/09/03 10:41:01;;;;;;;1.38;1.27;;;;;;;;;;5092578;28;20227;-84
2022/09/03 10:43:40;;;;;;;1.35;1.33;;;;;;;;;;5091454;28;20207;-83
2022/09/03 10:46:11;;;;;;;1.45;1.38;;;;;;;;;;5092213;28;20261;-83
2022/09/03 10:48:49;;;;;;;1.10;1.10;;;;;;;;;;5077743;28;20200;-83
2022/09/03 10:51:20;;;;;;;1.43;1.33;;;;;;;;;;5091361;28;20200;-83
2022/09/03 10:54:02;;;;;;;0.98;0.98;;;;;;;;;;5091854;28;20196;-83
2022/09/03 10:56:33;;;;;;;1.65;1.55;;;;;;;;;;5092099;28;20211;-84
2022/09/03 10:59:10;;;;;;;1.45;1.35;;;;;;;;;;5092058;28;20232;-83
2022/09/03 11:01:42;;;;;;;1.20;1.20;;;;;;;;;;5091811;28;20256;-84
2022/09/03 11:04:29;;;;;;;1.23;1.17;;;;;;;;;;5091775;28;20222;-83
2022/09/03 11:06:59;;;;;;;1.50;1.37;;;;;;;;;;5091561;28;20200;-83
2022/09/03 11:09:31;;;;;;;1.70;1.60;;;;;;;;;;5091516;28;20289;-83
2022/09/03 11:12:00;;;;;;;1.50;1.23;;;;;;;;;;5091358;28;20205;-83
2022/09/03 11:14:35;;;;;;;1.50;1.40;;;;;;;;;;5090635;28;20203;-83
2022/09/03 11:17:07;;;;;;;1.63;1.53;;;;;;;;;;5090777;28;20204;-84
2022/09/03 11:19:36;;;;;;;1.88;1.77;;;;;;;;;;5090613;28;20781;-83
2022/09/03 11:22:06;;;;;;;1.70;1.60;;;;;;;;;;5090659;28;20273;-83
2022/09/03 11:24:33;;;;;;;1.40;1.40;;;;;;;;;;5090301;28;20228;-86
2022/09/03 11:27:10;;;;;;;1.38;1.25;;;;;;;;;;5090529;28;20740;-84
2022/09/03 11:29:43;;;;;;;1.30;1.20;;;;;;;;;;5091630;28;20257;-84
2022/09/03 11:32:17;;;;;;;1.48;1.20;;;;;;;;;;5091282;28;20200;-84
2022/09/03 11:34:46;;;;;;;1.23;1.15;;;;;;;;;;5091464;28;20225;-84
2022/09/03 11:37:19;;;;;;;1.20;1.20;;;;;;;;;;5091139;28;20286;-84
2022/09/03 11:39:54;;;;;;;1.52;1.42;;;;;;;;;;5090813;28;20205;-84
2022/09/03 11:42:28;;;;;;;1.38;1.27;;;;;;;;;;5091040;28;20223;-82
2022/09/03 11:45:01;;;;;;;1.10;1.10;;;;;;;;;;5090917;28;20226;-83
2022/09/03 11:47:39;;;;;;;1.02;1.02;;;;;;;;;;5091039;28;20249;-85
2022/09/03 11:50:09;;;;;;;1.40;1.30;;;;;;;;;;5090633;28;20200;-84
2022/09/03 11:52:40;;;;;;;1.25;1.15;;;;;;;;;;5089963;28;20228;-83
2022/09/03 11:55:08;;;;;;;1.50;1.40;;;;;;;;;;5088907;28;20223;-84
2022/09/03 11:57:42;;;;;;;1.20;1.20;;;;;;;;;;5085201;28;20287;-84
2022/09/03 12:00:11;;;;;;;0.95;0.95;;;;;;;;;;5090873;28;20288;-84
2022/09/03 12:02:44;;;;;;;1.52;1.42;;;;;;;;;;5090521;28;20725;-84
2022/09/03 12:05:21;;;;;;;1.25;1.25;;;;;;;;;;5090477;28;20231;-83
2022/09/03 12:08:06;;;;;;;0.98;0.98;;;;;;;;;;5076933;28;20567;-83
2022/09/03 12:10:39;;;;;;;1.42;1.33;;;;;;;;;;5090556;28;20203;-83
2022/09/03 12:13:29;;;;;;;1.08;1.08;;;;;;;;;;5090532;28;20208;-84
2022/09/03 12:16:23;;;;;;;1.48;1.38;;;;;;;;;;5080790;28;20201;-83
2022/09/03 12:18:51;;;;;;;2.08;1.80;;;;;;;;;;5079377;28;20204;-83
2022/09/03 12:21:19;;;;;;;1.40;1.30;;;;;;;;;;5089037;28;20303;-82
2022/09/03 12:23:49;;;;;;;1.75;1.65;;;;;;;;;;5089598;28;20288;-82
2022/09/03 12:26:18;;;;;;;1.52;1.42;;;;;;;;;;5089296;28;20223;-82
2022/09/03 12:28:46;;;;;;;1.63;1.52;;;;;;;;;;5089483;28;20208;-82
2022/09/03 12:31:22;;;;;;;1.43;1.33;;;;;;;;;;5088920;28;20232;-82
2022/09/03 12:33:52;;;;;;;1.20;1.20;;;;;;;;;;5089285;28;20261;-82
2022/09/03 12:36:19;;;;;;;1.25;1.15;;;;;;;;;;5089257;28;20200;-80
2022/09/03 12:38:48;;;;;;;1.30;1.20;;;;;;;;;;5089560;28;20197;-82
2022/09/03 12:41:26;;;;;;;1.23;1.13;;;;;;;;;;5089314;28;20200;-83
2022/09/03 12:43:55;;;;;;;0.98;0.98;;;;;;;;;;5076633;28;20229;-84
2022/09/03 12:46:26;;;;;;;1.10;1.10;;;;;;;;;;5088519;28;20292;-83
2022/09/03 12:49:02;;;;;;;1.33;1.23;;;;;;;;;;5075881;28;20200;-83
2022/09/03 12:51:32;;;;;;;1.23;1.23;;;;;;;;;;5089457;28;20204;-83
2022/09/03 12:54:01;;;;;;;1.60;1.50;;;;;;;;;;5079213;28;20254;-83
2022/09/03 12:56:32;;;;;;;1.50;1.40;;;;;;;;;;5093482;28;20279;-84
2022/09/03 12:59:02;;;;;;;1.40;1.35;;;;;;;;;;5092474;28;20632;-83
2022/09/03 13:01:30;;;;;;;2.38;1.83;;;;;;;;;;5092999;28;20232;-83
2022/09/03 13:04:05;;;;;;;1.40;1.30;;;;;;;;;;5093781;28;20582;-84
2022/09/03 13:06:43;;;;;;;1.20;1.20;;;;;;;;;;5094094;28;20200;-84
2022/09/03 13:09:11;;;;;;;1.40;1.30;;;;;;;;;;5077285;28;20200;-85
2022/09/03 13:11:38;;;;;;;1.47;1.37;;;;;;;;;;5094051;28;20637;-85
2022/09/03 13:14:07;;;;;;;1.38;1.27;;;;;;;;;;5093997;28;20196;-84
2022/09/03 13:17:09;;;;;;;1.50;1.40;;;;;;;;;;5094202;28;20205;-84
2022/09/03 13:19:49;;;;;;;1.80;1.70;;;;;;;;;;5079122;28;20200;-86
2022/09/03 13:22:23;;;;;;;1.30;1.20;;;;;;;;;;5094344;28;20239;-83
2022/09/03 13:25:11;;;;;;;1.10;1.10;;;;;;;;;;5094071;28;20199;-86
2022/09/03 13:27:43;;;;;;;1.70;1.60;;;;;;;;;;5093767;28;20201;-85
2022/09/03 13:30:13;;;;;;;1.70;1.57;;;;;;;;;;5101504;28;20223;-84
2022/09/03 13:32:49;;;;;;;1.77;1.47;;;;;;;;;;5099403;28;20205;-83
2022/09/03 13:35:25;;;;;;;2.50;2.30;;;;;;;;;;5093364;28;20336;-86
2022/09/03 13:37:57;;;;;;;1.40;1.30;;;;;;;;;;5094062;28;20599;-85
2022/09/03 13:40:28;;;;;;;1.50;1.40;;;;;;;;;;5093618;28;20208;-84
2022/09/03 13:43:02;;;;;;;1.80;1.70;;;;;;;;;;5093117;28;20259;-84
2022/09/03 13:45:32;;;;;;;1.50;1.40;;;;;;;;;;5093212;28;20291;-84
2022/09/03 13:50:52;;;;;;;1.50;1.40;;;;;;;;;;5093257;28;20242;-83
2022/09/03 13:53:30;;;;;;;1.50;1.40;;;;;;;;;;5093332;28;20200;-84
2022/09/03 13:56:05;;;;;;;1.60;1.50;;;;;;;;;;5079142;28;20192;-86
2022/09/03 13:58:36;;;;;;;1.67;1.57;;;;;;;;;;5093753;28;20258;-84
2022/09/03 14:01:14;;;;;;;1.40;1.30;;;;;;;;;;5079324;28;20249;-84
2022/09/03 14:03:45;;;;;;;2.10;1.90;;;;;;;;;;5092536;28;20223;-85
2022/09/03 14:06:18;;;;;;;1.70;1.60;;;;;;;;;;5084423;28;20567;-85
2022/09/03 14:09:00;;;;;;;1.63;1.53;;;;;;;;;;5092744;28;20204;-84
2022/09/03 14:11:32;;;;;;;1.77;1.67;;;;;;;;;;5093410;28;20201;-85
2022/09/03 14:14:13;;;;;;;1.50;1.40;;;;;;;;;;5092671;28;20250;-84
2022/09/03 14:16:46;;;;;;;1.80;1.70;;;;;;;;;;5093223;28;20200;-85
2022/09/03 14:19:17;;;;;;;1.60;1.50;;;;;;;;;;5093033;28;20204;-84
2022/09/03 14:21:48;;;;;;;1.47;1.37;;;;;;;;;;5104550;28;20626;-84
2022/09/03 14:24:21;;;;;;;1.70;1.60;;;;;;;;;;5094270;28;20239;-84
2022/09/03 14:26:54;;;;;;;2.07;1.97;;;;;;;;;;5092791;28;20296;-85
2022/09/03 14:29:24;;;;;;;1.60;1.50;;;;;;;;;;5092602;28;20220;-83
2022/09/03 14:32:33;;;;;;;2.40;2.30;;;;;;;;;;5092400;28;20650;-82
2022/09/03 14:35:14;;;;;;;1.83;1.73;;;;;;;;;;5018950;28;20199;-85
2022/09/03 14:38:04;;;;;;;1.60;1.50;;;;;;;;;;5084345;28;20204;-86
2022/09/03 14:40:40;;;;;;;1.37;1.27;;;;;;;;;;5075282;28;20208;-85
2022/09/03 14:43:21;;;;;;;1.93;1.83;;;;;;;;;;5091824;28;20224;-85
2022/09/03 14:46:03;;;;;;;1.87;1.77;;;;;;;;;;5091906;28;20200;-85
2022/09/03 14:48:38;;;;;;;2.10;1.97;;;;;;;;;;5092534;28;20208;-84
2022/09/03 14:51:14;;;;;;;2.17;1.80;;;;;;;;;;5089440;28;20200;-80
2022/09/03 14:54:09;;;;;;;1.80;1.70;;;;;;;;;;5078814;28;20697;-83
2022/09/03 14:56:44;;;;;;;1.70;1.60;;;;;;;;;;5091695;28;20705;-83
2022/09/03 14:59:23;;;;;;;1.80;1.70;;;;;;;;;;5091452;28;20253;-82
2022/09/03 15:02:04;;;;;;;1.83;1.70;;;;;;;;;;5091335;28;20211;-83
2022/09/03 15:04:45;;;;;;;2.10;2.00;;;;;;;;;;5076021;28;20770;-81
2022/09/03 15:07:26;;;;;;;2.07;1.93;;;;;;;;;;5091287;28;20645;-82
2022/09/03 15:10:01;;;;;;;2.13;2.00;;;;;;;;;;5091489;28;20276;-82
2022/09/03 15:12:35;;;;;;;2.17;2.07;;;;;;;;;;5091575;28;20200;-83
2022/09/03 15:15:13;;;;;;;1.80;1.70;;;;;;;;;;5090636;28;20211;-82
2022/09/03 15:17:48;;;;;;;1.90;1.80;;;;;;;;;;5106136;28;20314;-80